Time;durP1;ratioP1;P1;durP2;ratioP2;P2;SDS_P1;SDS_P2;PMS_P1;PMS_P2;Temp;Humidity;BMP_temperature;BMP_pressure;BME280_temperature;BME280_humidity;BME280_pressure;Samples;Min_cycle;Max_cycle;Signal;HPM_P1;HPM_P2
2021/04/06 00:00:45;;;;;;;0.43;0.43;;;3.10;99.90;;;;;;4995450;28;20173;-75
2021/04/06 00:03:18;;;;;;;0.30;0.30;;;3.10;99.90;;;;;;5010516;28;20162;-76
2021/04/06 00:05:48;;;;;;;0.30;0.30;;;3.00;99.90;;;;;;4995319;28;20189;-75
2021/04/06 00:08:15;;;;;;;15.80;1.30;;;3.10;99.90;;;;;;4995249;28;20665;-75
2021/04/06 00:10:51;;;;;;;0.30;0.30;;;3.10;99.90;;;;;;4995394;28;20165;-76
2021/04/06 00:13:18;;;;;;;0.27;0.27;;;3.10;99.90;;;;;;4995274;28;20193;-76
2021/04/06 00:15:45;;;;;;;0.20;0.20;;;3.10;99.90;;;;;;4995096;28;20735;-75
2021/04/06 00:18:13;;;;;;;0.30;0.30;;;3.20;99.90;;;;;;4995292;28;20157;-76
2021/04/06 00:20:40;;;;;;;0.30;0.30;;;3.10;99.90;;;;;;4995098;28;20162;-75
2021/04/06 00:23:08;;;;;;;0.30;0.30;;;3.20;99.90;;;;;;4995160;28;20219;-75
2021/04/06 00:25:38;;;;;;;0.30;0.30;;;3.10;99.90;;;;;;4995128;28;20189;-76
2021/04/06 00:28:07;;;;;;;0.30;0.30;;;2.90;99.90;;;;;;4993554;28;20219;-76
2021/04/06 00:30:35;;;;;;;0.87;0.87;;;2.90;99.90;;;;;;4994916;28;20693;-75
2021/04/06 00:33:15;;;;;;;0.20;0.20;;;2.80;99.90;;;;;;4993655;28;20264;-75
2021/04/06 00:35:41;;;;;;;0.53;0.53;;;2.90;99.90;;;;;;4994828;28;20184;-75
2021/04/06 00:38:11;;;;;;;0.30;0.30;;;2.80;99.90;;;;;;4994757;28;20158;-76
2021/04/06 00:40:42;;;;;;;0.20;0.20;;;2.90;99.90;;;;;;4994698;28;20165;-75
2021/04/06 00:43:08;;;;;;;0.20;0.20;;;2.90;99.90;;;;;;4994690;28;20181;-76
2021/04/06 00:45:38;;;;;;;0.30;0.30;;;2.90;99.90;;;;;;5026016;28;20196;-76
2021/04/06 00:48:11;;;;;;;0.40;0.40;;;3.00;99.90;;;;;;4994449;28;20193;-76
2021/04/06 00:50:38;;;;;;;0.20;0.20;;;3.20;99.90;;;;;;5009772;28;20223;-75
2021/04/06 00:53:04;;;;;;;0.20;0.20;;;3.20;99.90;;;;;;4994528;28;20183;-76
2021/04/06 00:55:39;;;;;;;1.48;1.38;;;3.30;99.90;;;;;;4994293;28;20299;-76
2021/04/06 00:58:11;;;;;;;0.53;0.53;;;3.30;99.90;;;;;;4994448;28;20188;-75
2021/04/06 01:00:37;;;;;;;0.20;0.20;;;3.20;99.90;;;;;;5025958;28;20168;-75
2021/04/06 01:03:18;;;;;;;0.40;0.40;;;3.20;99.90;;;;;;4993248;28;20181;-76
2021/04/06 01:05:59;;;;;;;0.57;0.57;;;3.20;99.90;;;;;;4994147;28;20185;-76
2021/04/06 01:08:26;;;;;;;0.50;0.50;;;3.00;99.90;;;;;;4992839;28;20208;-76
2021/04/06 01:10:52;;;;;;;0.30;0.30;;;3.10;99.90;;;;;;4993367;28;20173;-75
2021/04/06 01:13:22;;;;;;;0.30;0.30;;;3.20;99.90;;;;;;4994203;28;20671;-76
2021/04/06 01:15:48;;;;;;;0.87;0.87;;;3.30;99.90;;;;;;4994092;28;20193;-76
2021/04/06 01:18:14;;;;;;;0.77;0.77;;;3.40;99.90;;;;;;4994137;28;20169;-76
2021/04/06 01:20:40;;;;;;;0.30;0.30;;;3.50;99.90;;;;;;4994166;28;20176;-79
2021/04/06 01:23:15;;;;;;;0.30;0.30;;;3.40;99.90;;;;;;4992918;28;20177;-78
2021/04/06 01:25:54;;;;;;;0.73;0.73;;;3.40;99.90;;;;;;4992733;28;20564;-79
2021/04/06 01:28:21;;;;;;;0.50;0.50;;;3.20;99.90;;;;;;4994030;28;20200;-79
2021/04/06 01:30:49;;;;;;;0.30;0.30;;;3.20;99.90;;;;;;4994116;28;20161;-78
2021/04/06 01:33:25;;;;;;;0.50;0.50;;;3.20;99.90;;;;;;4994024;28;20318;-79
2021/04/06 01:35:55;;;;;;;0.30;0.30;;;3.30;99.90;;;;;;4993918;28;20184;-78
2021/04/06 01:38:27;;;;;;;0.40;0.40;;;3.40;99.90;;;;;;4992576;28;20181;-79
2021/04/06 01:40:55;;;;;;;0.20;0.20;;;3.30;99.90;;;;;;4993808;28;20531;-78
2021/04/06 01:43:24;;;;;;;0.20;0.20;;;3.30;99.90;;;;;;4993795;28;20633;-78
2021/04/06 01:46:06;;;;;;;5.20;1.43;;;3.20;99.90;;;;;;4993804;28;20188;-78
2021/04/06 01:48:33;;;;;;;0.30;0.30;;;3.20;99.90;;;;;;4993679;28;20682;-77
2021/04/06 01:50:59;;;;;;;0.70;0.70;;;3.20;99.90;;;;;;4993759;28;20149;-78
2021/04/06 01:53:25;;;;;;;0.30;0.30;;;3.30;99.90;;;;;;4992294;28;20184;-79
2021/04/06 01:55:59;;;;;;;0.60;0.60;;;3.30;99.90;;;;;;4993679;28;20822;-78
2021/04/06 01:58:27;;;;;;;0.30;0.30;;;3.20;99.90;;;;;;4993895;28;20165;-75
2021/04/06 02:03:30;;;;;;;0.30;0.30;;;3.10;99.90;;;;;;4993656;28;20180;-75
2021/04/06 02:05:57;;;;;;;0.70;0.70;;;3.10;99.90;;;;;;5008542;28;20185;-78
2021/04/06 02:08:26;;;;;;;0.70;0.70;;;3.10;99.90;;;;;;4993492;28;20208;-79
2021/04/06 02:10:52;;;;;;;0.30;0.30;;;3.20;99.90;;;;;;4993610;28;20222;-78
2021/04/06 02:13:19;;;;;;;0.30;0.30;;;3.10;99.90;;;;;;4993564;28;20264;-77
2021/04/06 02:15:58;;;;;;;0.30;0.30;;;3.10;99.90;;;;;;4993393;28;20208;-76
2021/04/06 02:18:26;;;;;;;0.43;0.43;;;3.10;99.90;;;;;;4993485;28;20173;-75
2021/04/06 02:20:54;;;;;;;0.30;0.30;;;2.90;99.90;;;;;;4993549;28;20165;-76
2021/04/06 02:23:19;;;;;;;1.80;1.70;;;2.90;99.90;;;;;;4996792;28;20239;-76
2021/04/06 02:25:53;;;;;;;1.40;1.07;;;2.90;99.90;;;;;;4997357;28;20723;-75
2021/04/06 02:28:22;;;;;;;0.23;0.23;;;2.90;99.90;;;;;;4997148;28;20668;-75
2021/04/06 02:30:59;;;;;;;2.10;1.57;;;2.90;99.90;;;;;;4997231;28;20732;-75
2021/04/06 02:33:36;;;;;;;0.30;0.30;;;3.10;99.90;;;;;;4997213;28;20173;-75
2021/04/06 02:36:09;;;;;;;0.30;0.30;;;3.20;99.90;;;;;;4997128;28;20192;-75
2021/04/06 02:38:38;;;;;;;0.80;0.80;;;3.40;99.90;;;;;;4997024;28;20162;-76
2021/04/06 02:41:09;;;;;;;0.30;0.30;;;3.40;99.90;;;;;;5027758;28;20244;-76
2021/04/06 02:43:45;;;;;;;0.40;0.40;;;3.40;99.90;;;;;;4996949;28;20162;-76
2021/04/06 02:46:13;;;;;;;0.30;0.30;;;3.50;99.90;;;;;;4996916;28;20188;-76
2021/04/06 02:48:39;;;;;;;0.30;0.30;;;3.50;99.90;;;;;;4996899;28;20205;-76
2021/04/06 02:51:05;;;;;;;0.40;0.40;;;3.40;99.90;;;;;;4996922;28;20515;-76
2021/04/06 02:53:35;;;;;;;1.37;1.37;;;3.20;99.90;;;;;;5011875;28;20192;-75
2021/04/06 02:56:00;;;;;;;0.70;0.70;;;3.10;99.90;;;;;;4996805;28;20189;-75
2021/04/06 02:58:33;;;;;;;1.55;1.23;;;3.00;99.90;;;;;;4996677;28;20172;-75
2021/04/06 03:01:18;;;;;;;0.63;0.63;;;2.90;99.90;;;;;;5011806;28;20617;-75
2021/04/06 03:03:43;;;;;;;0.40;0.40;;;2.90;99.90;;;;;;4996592;28;20177;-76
2021/04/06 03:06:12;;;;;;;0.20;0.20;;;3.00;99.90;;;;;;5028086;28;20554;-76
2021/04/06 03:08:39;;;;;;;0.30;0.30;;;3.00;99.90;;;;;;4996485;28;20197;-78
2021/04/06 03:11:07;;;;;;;0.30;0.30;;;3.10;99.90;;;;;;4996473;28;20145;-78
2021/04/06 03:13:33;;;;;;;7.10;2.90;;;3.10;99.90;;;;;;5027957;28;20170;-78
2021/04/06 03:16:01;;;;;;;0.63;0.63;;;3.10;99.90;;;;;;4996396;28;20186;-78
2021/04/06 03:18:36;;;;;;;5.87;0.70;;;2.90;99.90;;;;;;4996360;28;20166;-79
2021/04/06 03:21:04;;;;;;;0.30;0.30;;;2.90;99.90;;;;;;4996339;28;20169;-78
2021/04/06 03:23:32;;;;;;;6.50;0.70;;;2.90;99.90;;;;;;5027940;28;20185;-78
2021/04/06 03:25:58;;;;;;;0.30;0.30;;;2.90;99.90;;;;;;4996069;28;20193;-79
2021/04/06 03:28:34;;;;;;;0.33;0.33;;;2.80;99.90;;;;;;4996309;28;20199;-78
2021/04/06 03:31:18;;;;;;;0.30;0.30;;;2.80;99.90;;;;;;4996104;28;20153;-78
2021/04/06 03:33:45;;;;;;;0.30;0.30;;;2.70;99.90;;;;;;4994976;28;20180;-78
2021/04/06 03:36:25;;;;;;;0.30;0.30;;;2.80;99.90;;;;;;4995806;28;20193;-78
2021/04/06 03:38:54;;;;;;;0.40;0.40;;;2.90;99.90;;;;;;4996051;28;20201;-77
2021/04/06 03:41:23;;;;;;;0.30;0.30;;;3.00;99.90;;;;;;4995984;28;20613;-78
2021/04/06 03:43:49;;;;;;;0.63;0.63;;;3.00;99.90;;;;;;4995907;28;20169;-78
2021/04/06 03:46:23;;;;;;;1.00;0.90;;;3.00;99.90;;;;;;4995566;28;20196;-78
2021/04/06 03:48:50;;;;;;;0.30;0.30;;;3.10;99.90;;;;;;4995716;28;20200;-78
2021/04/06 03:51:25;;;;;;;0.40;0.40;;;3.10;99.90;;;;;;4995565;28;20161;-78
2021/04/06 03:53:52;;;;;;;0.53;0.53;;;3.10;99.90;;;;;;4995764;28;20747;-78
2021/04/06 03:56:17;;;;;;;3.53;0.73;;;3.10;99.90;;;;;;4995351;28;20644;-78
2021/04/06 03:59:00;;;;;;;2.30;1.80;;;3.00;99.90;;;;;;4995433;28;20223;-78
2021/04/06 04:01:27;;;;;;;0.50;0.50;;;3.10;99.90;;;;;;4995478;28;20244;-78
2021/04/06 04:03:54;;;;;;;0.20;0.20;;;3.30;99.90;;;;;;4995321;28;20177;-78
2021/04/06 04:06:27;;;;;;;0.50;0.50;;;3.40;99.90;;;;;;4995236;28;20193;-76
2021/04/06 04:08:53;;;;;;;0.30;0.30;;;3.50;99.90;;;;;;4995299;28;20209;-78
2021/04/06 04:11:20;;;;;;;1.13;1.13;;;3.10;99.90;;;;;;4995278;28;20166;-79
2021/04/06 04:13:46;;;;;;;0.43;0.43;;;3.00;99.90;;;;;;4995544;28;20587;-79
2021/04/06 04:16:12;;;;;;;0.70;0.70;;;2.80;99.90;;;;;;4993896;28;20574;-79
2021/04/06 04:18:38;;;;;;;0.30;0.30;;;2.60;99.90;;;;;;4995173;28;20231;-79
2021/04/06 04:21:04;;;;;;;1.70;1.03;;;2.50;99.90;;;;;;4995010;28;20617;-79
2021/04/06 04:23:30;;;;;;;0.20;0.20;;;2.40;99.90;;;;;;4995263;28;20637;-79
2021/04/06 04:25:56;;;;;;;0.50;0.50;;;2.30;99.90;;;;;;4994901;28;20653;-79
2021/04/06 04:28:22;;;;;;;0.30;0.30;;;2.40;99.90;;;;;;4994915;28;20228;-79
2021/04/06 04:30:50;;;;;;;0.30;0.30;;;2.40;99.90;;;;;;5026426;28;20169;-79
2021/04/06 04:33:16;;;;;;;3.13;0.60;;;2.40;99.90;;;;;;4994722;28;20558;-80
2021/04/06 04:35:42;;;;;;;0.30;0.30;;;2.50;99.90;;;;;;4994589;28;20196;-79
2021/04/06 04:38:09;;;;;;;0.30;0.30;;;2.60;99.90;;;;;;4994852;28;20220;-79
2021/04/06 04:40:35;;;;;;;0.30;0.30;;;2.70;99.90;;;;;;4994667;28;20247;-80
2021/04/06 04:43:02;;;;;;;0.40;0.40;;;2.90;99.90;;;;;;4994676;28;20165;-79
2021/04/06 04:45:27;;;;;;;0.30;0.30;;;2.90;99.90;;;;;;4994252;28;20192;-79
2021/04/06 04:47:53;;;;;;;0.20;0.20;;;2.90;99.90;;;;;;5026173;28;20899;-79
2021/04/06 04:50:20;;;;;;;0.20;0.20;;;2.90;99.90;;;;;;4994391;28;20221;-79
2021/04/06 04:52:47;;;;;;;1.13;1.13;;;2.70;99.90;;;;;;4994408;28;20244;-79
2021/04/06 04:55:18;;;;;;;0.23;0.23;;;2.80;99.90;;;;;;4994167;28;20225;-79
2021/04/06 04:57:44;;;;;;;0.30;0.30;;;2.70;99.90;;;;;;4994699;28;20733;-79
2021/04/06 05:00:11;;;;;;;0.20;0.20;;;2.60;99.90;;;;;;4994252;28;20193;-79
2021/04/06 05:02:37;;;;;;;0.30;0.30;;;2.70;99.90;;;;;;4994409;28;20260;-79
2021/04/06 05:05:04;;;;;;;0.83;0.83;;;2.70;99.90;;;;;;4993937;28;20251;-79
2021/04/06 05:07:29;;;;;;;0.30;0.30;;;2.60;99.90;;;;;;4993696;28;20336;-79
2021/04/06 05:09:55;;;;;;;0.30;0.30;;;2.60;99.90;;;;;;4994039;28;20251;-79
2021/04/06 05:12:21;;;;;;;0.70;0.70;;;2.70;99.90;;;;;;5025731;28;20169;-77
2021/04/06 05:14:47;;;;;;;0.30;0.30;;;2.80;99.90;;;;;;4994117;28;20157;-79
2021/04/06 05:17:14;;;;;;;1.07;1.07;;;2.90;99.90;;;;;;4993875;28;20193;-79
2021/04/06 05:19:40;;;;;;;0.30;0.30;;;2.90;99.90;;;;;;4992607;28;20248;-80
2021/04/06 05:22:06;;;;;;;0.40;0.40;;;2.80;99.90;;;;;;4993734;28;20161;-79
2021/04/06 05:24:31;;;;;;;0.30;0.30;;;2.80;99.90;;;;;;4994377;28;20179;-76
2021/04/06 05:26:57;;;;;;;0.40;0.40;;;2.90;99.90;;;;;;4993800;28;20217;-74
2021/04/06 05:29:23;;;;;;;0.90;0.90;;;2.90;99.90;;;;;;4993895;28;20175;-74
2021/04/06 05:31:48;;;;;;;0.30;0.30;;;2.90;99.90;;;;;;4993754;28;20161;-75
2021/04/06 05:34:14;;;;;;;0.30;0.30;;;2.90;99.90;;;;;;4993729;28;20169;-75
2021/04/06 05:36:39;;;;;;;0.30;0.30;;;2.80;99.90;;;;;;4993619;28;20189;-75
2021/04/06 05:39:05;;;;;;;0.40;0.40;;;2.70;99.90;;;;;;4993615;28;20173;-76
2021/04/06 05:41:31;;;;;;;0.20;0.20;;;2.70;99.90;;;;;;4993740;28;20175;-76
2021/04/06 05:44:00;;;;;;;0.30;0.30;;;2.60;99.90;;;;;;4993630;28;20231;-75
2021/04/06 05:46:30;;;;;;;0.37;0.37;;;2.60;99.90;;;;;;4992180;28;20189;-77
2021/04/06 05:48:59;;;;;;;0.90;0.90;;;2.60;99.90;;;;;;4993487;28;20216;-76
2021/04/06 05:51:26;;;;;;;0.30;0.30;;;2.80;99.90;;;;;;4993448;28;20191;-77
2021/04/06 05:53:52;;;;;;;0.67;0.47;;;2.80;99.90;;;;;;5024967;28;20229;-80
2021/04/06 05:56:18;;;;;;;0.20;0.20;;;2.90;99.90;;;;;;4993473;28;20228;-77
2021/04/06 05:58:44;;;;;;;0.20;0.20;;;3.00;99.90;;;;;;4997530;28;20176;-78
2021/04/06 06:01:09;;;;;;;0.20;0.20;;;3.20;99.90;;;;;;4997423;28;20161;-80
2021/04/06 06:03:35;;;;;;;0.20;0.20;;;3.20;99.90;;;;;;5028804;28;20684;-77
2021/04/06 06:06:00;;;;;;;0.67;0.67;;;3.00;99.90;;;;;;4997405;28;20279;-78
2021/04/06 06:08:29;;;;;;;0.30;0.30;;;2.90;99.90;;;;;;4996582;28;20201;-77
2021/04/06 06:11:03;;;;;;;0.20;0.20;;;3.00;99.90;;;;;;4996524;28;20256;-76
2021/04/06 06:13:29;;;;;;;0.20;0.20;;;3.00;99.90;;;;;;4997188;28;20173;-76
2021/04/06 06:16:16;;;;;;;1.80;1.27;;;2.90;99.90;;;;;;4997104;28;20690;-77
2021/04/06 06:19:01;;;;;;;0.40;0.40;;;2.70;99.90;;;;;;4997076;28;20180;-80
2021/04/06 06:21:45;;;;;;;0.20;0.20;;;2.50;99.90;;;;;;4994777;28;20256;-75
2021/04/06 06:24:31;;;;;;;0.20;0.20;;;2.50;99.90;;;;;;4997322;28;20532;-76
2021/04/06 06:26:58;;;;;;;0.50;0.50;;;2.70;99.90;;;;;;4996938;28;20671;-76
2021/04/06 06:29:28;;;;;;;0.30;0.30;;;2.80;99.90;;;;;;4996892;28;20177;-75
2021/04/06 06:31:58;;;;;;;0.30;0.30;;;2.90;99.90;;;;;;4995281;28;20174;-78
2021/04/06 06:34:29;;;;;;;0.30;0.30;;;3.00;99.90;;;;;;4995347;28;20169;-78
2021/04/06 06:37:13;;;;;;;0.30;0.30;;;3.00;99.90;;;;;;4996720;28;20257;-77
2021/04/06 06:39:47;;;;;;;0.20;0.20;;;3.20;99.90;;;;;;4996776;28;20176;-78
2021/04/06 06:42:15;;;;;;;0.20;0.20;;;3.30;99.90;;;;;;4995403;28;20160;-76
2021/04/06 06:44:41;;;;;;;0.30;0.30;;;3.30;99.90;;;;;;4996632;28;20574;-75
2021/04/06 06:47:10;;;;;;;0.43;0.43;;;3.40;99.90;;;;;;4995107;28;20288;-75
2021/04/06 06:49:38;;;;;;;0.20;0.20;;;3.40;99.90;;;;;;4996522;28;20173;-75
2021/04/06 06:52:24;;;;;;;0.20;0.20;;;3.40;99.90;;;;;;4996299;28;20219;-75
2021/04/06 06:55:01;;;;;;;0.20;0.20;;;3.50;99.90;;;;;;4994780;28;20243;-75
2021/04/06 06:57:35;;;;;;;0.20;0.20;;;3.70;99.90;;;;;;4996275;28;20213;-75
2021/04/06 07:00:18;;;;;;;0.30;0.30;;;3.70;99.90;;;;;;4996440;28;20165;-76
2021/04/06 07:02:45;;;;;;;0.20;0.20;;;3.80;99.90;;;;;;4996119;28;20179;-75
2021/04/06 07:05:12;;;;;;;0.20;0.20;;;3.70;99.90;;;;;;4994769;28;20161;-76
2021/04/06 07:08:00;;;;;;;0.30;0.30;;;3.60;99.90;;;;;;4996022;28;20254;-76
2021/04/06 07:10:28;;;;;;;0.20;0.20;;;3.60;99.90;;;;;;4994843;28;20176;-75
2021/04/06 07:13:03;;;;;;;0.30;0.30;;;3.10;99.90;;;;;;4996018;28;20256;-78
2021/04/06 07:15:30;;;;;;;0.70;0.70;;;2.90;99.90;;;;;;4995887;28;20191;-76
2021/04/06 07:18:02;;;;;;;0.40;0.40;;;2.60;99.90;;;;;;4994855;28;20617;-76
2021/04/06 07:20:31;;;;;;;0.93;0.60;;;2.50;99.90;;;;;;4996133;28;20165;-76
2021/04/06 07:23:03;;;;;;;0.93;0.40;;;2.40;99.90;;;;;;4994487;28;20261;-76
2021/04/06 07:25:29;;;;;;;0.23;0.23;;;2.30;99.90;;;;;;4995764;28;20180;-76
2021/04/06 07:27:56;;;;;;;0.20;0.20;;;2.40;99.90;;;;;;4995833;28;20668;-77
2021/04/06 07:30:22;;;;;;;0.50;0.50;;;2.50;99.90;;;;;;4995963;28;20177;-77
2021/04/06 07:32:51;;;;;;;0.30;0.30;;;2.60;99.90;;;;;;4995746;28;20256;-76
2021/04/06 07:35:17;;;;;;;0.27;0.27;;;2.70;99.90;;;;;;4994416;28;20209;-76
2021/04/06 07:37:44;;;;;;;0.30;0.30;;;2.80;99.90;;;;;;4995606;28;20193;-77
2021/04/06 07:40:13;;;;;;;0.30;0.30;;;3.10;99.90;;;;;;4995621;28;20530;-78
2021/04/06 07:42:41;;;;;;;0.30;0.30;;;3.30;99.90;;;;;;4994263;28;20312;-79
2021/04/06 07:45:24;;;;;;;0.30;0.30;;;3.50;99.90;;;;;;4994284;28;20169;-78
2021/04/06 07:47:51;;;;;;;0.30;0.30;;;3.50;99.90;;;;;;4995280;28;20742;-79
2021/04/06 07:50:45;;;;;;;0.30;0.30;;;3.20;99.90;;;;;;4995479;28;20253;-81
2021/04/06 07:53:26;;;;;;;6.50;0.60;;;3.30;99.90;;;;;;4994158;28;20208;-79
2021/04/06 07:55:58;;;;;;;0.37;0.37;;;3.50;99.90;;;;;;4995594;28;20652;-82
2021/04/06 07:58:46;;;;;;;0.37;0.37;;;3.60;99.90;;;;;;4994075;28;20173;-77
2021/04/06 08:01:17;;;;;;;0.20;0.20;;;3.60;99.90;;;;;;4995581;28;20192;-77
2021/04/06 08:03:54;;;;;;;0.30;0.30;;;3.50;99.90;;;;;;4995066;28;20200;-77
2021/04/06 08:06:26;;;;;;;0.23;0.23;;;3.70;99.90;;;;;;4995176;28;20529;-77
2021/04/06 08:08:52;;;;;;;0.30;0.30;;;3.70;99.90;;;;;;4995306;28;20228;-78
2021/04/06 08:11:18;;;;;;;0.20;0.20;;;3.90;99.90;;;;;;4995051;28;20174;-77
2021/04/06 08:13:45;;;;;;;0.97;0.90;;;4.10;99.90;;;;;;4995034;28;20179;-77
2021/04/06 08:16:18;;;;;;;0.27;0.23;;;4.20;99.90;;;;;;5010252;28;20268;-79
2021/04/06 08:18:51;;;;;;;0.20;0.20;;;4.40;99.90;;;;;;4994738;28;20165;-78
2021/04/06 08:21:18;;;;;;;0.30;0.30;;;4.70;99.90;;;;;;5009573;28;20161;-78
2021/04/06 08:23:46;;;;;;;0.20;0.20;;;4.80;99.90;;;;;;5008963;28;20184;-78
2021/04/06 08:26:34;;;;;;;0.20;0.20;;;4.50;99.90;;;;;;4994701;28;20661;-77
2021/04/06 08:29:22;;;;;;;0.20;0.20;;;4.10;99.90;;;;;;4994530;28;20539;-77
2021/04/06 08:32:14;;;;;;;0.85;0.73;;;3.90;99.90;;;;;;4994199;28;20167;-76
2021/04/06 08:34:50;;;;;;;0.45;0.45;;;4.10;99.90;;;;;;4994351;28;20177;-76
2021/04/06 08:37:20;;;;;;;0.30;0.30;;;4.30;99.90;;;;;;4992610;28;20196;-77
2021/04/06 08:39:47;;;;;;;3.90;1.60;;;4.10;99.90;;;;;;4994598;28;20259;-77
2021/04/06 08:42:17;;;;;;;0.20;0.20;;;4.20;99.90;;;;;;4994029;28;20173;-76
2021/04/06 08:44:44;;;;;;;0.20;0.20;;;4.30;99.90;;;;;;4994299;28;20216;-76
2021/04/06 08:47:46;;;;;;;0.43;0.43;;;4.30;99.90;;;;;;4992701;28;20243;-77
2021/04/06 08:50:33;;;;;;;0.20;0.20;;;4.40;99.90;;;;;;4985204;28;20173;-76
2021/04/06 08:52:59;;;;;;;0.20;0.20;;;4.60;99.90;;;;;;4993717;28;20184;-75
2021/04/06 08:55:26;;;;;;;0.20;0.20;;;4.70;99.90;;;;;;4992487;28;20232;-75
2021/04/06 08:57:59;;;;;;;1.67;1.58;;;4.70;99.90;;;;;;4992832;28;20207;-77
2021/04/06 09:00:26;;;;;;;0.20;0.20;;;4.70;99.90;;;;;;4993646;28;20255;-79
2021/04/06 09:03:05;;;;;;;0.22;0.22;;;4.70;99.90;;;;;;4993640;28;20184;-77
2021/04/06 09:05:31;;;;;;;0.20;0.20;;;4.70;99.90;;;;;;4992881;28;20543;-78
2021/04/06 09:07:57;;;;;;;0.30;0.30;;;4.70;99.90;;;;;;4993772;28;20225;-77
2021/04/06 09:10:22;;;;;;;0.30;0.30;;;4.70;99.90;;;;;;4993771;28;20169;-78
2021/04/06 09:12:51;;;;;;;0.20;0.20;;;4.80;99.90;;;;;;4993785;28;20170;-78
2021/04/06 09:15:20;;;;;;;0.20;0.20;;;4.80;99.90;;;;;;4993874;28;20176;-78
2021/04/06 09:17:46;;;;;;;0.20;0.20;;;4.90;99.90;;;;;;4991388;28;20260;-77
2021/04/06 09:20:17;;;;;;;0.50;0.50;;;5.20;99.90;;;;;;4993425;28;20231;-77
2021/04/06 09:22:47;;;;;;;0.20;0.20;;;5.20;99.90;;;;;;4993793;28;20235;-77
2021/04/06 09:25:23;;;;;;;0.20;0.20;;;5.30;99.90;;;;;;4991883;28;20177;-77
2021/04/06 09:27:51;;;;;;;0.20;0.20;;;5.40;99.90;;;;;;4991533;28;20555;-77
2021/04/06 09:30:18;;;;;;;0.22;0.22;;;5.40;99.90;;;;;;4993619;28;20161;-78
2021/04/06 09:32:44;;;;;;;0.38;0.38;;;5.50;99.90;;;;;;4992710;28;20165;-78
2021/04/06 09:35:16;;;;;;;0.30;0.30;;;5.60;99.90;;;;;;4991553;28;20179;-76
2021/04/06 09:37:41;;;;;;;2.10;1.10;;;5.70;99.90;;;;;;4978265;28;20173;-76
2021/04/06 09:40:07;;;;;;;0.30;0.30;;;5.60;99.90;;;;;;5008195;28;20260;-77
2021/04/06 09:42:35;;;;;;;0.20;0.20;;;5.60;99.90;;;;;;4993495;28;20519;-77
2021/04/06 09:45:04;;;;;;;0.40;0.40;;;5.70;99.90;;;;;;4995179;28;20149;-78
2021/04/06 09:47:34;;;;;;;0.63;0.63;;;5.80;99.90;;;;;;5002364;28;20602;-77
2021/04/06 09:50:03;;;;;;;0.20;0.20;;;6.20;99.90;;;;;;4993603;28;20177;-76
2021/04/06 09:52:29;;;;;;;0.47;0.47;;;6.40;99.90;;;;;;4992946;28;20169;-77
2021/04/06 09:55:08;;;;;;;0.30;0.30;;;6.60;99.90;;;;;;4992933;28;20221;-76
2021/04/06 09:57:37;;;;;;;1.65;0.57;;;7.20;99.90;;;;;;4992816;28;20244;-76
2021/04/06 10:00:08;;;;;;;0.80;0.80;;;7.40;99.90;;;;;;4993383;28;20187;-77
2021/04/06 10:02:33;;;;;;;0.40;0.40;;;7.60;99.90;;;;;;4991488;28;20165;-78
2021/04/06 10:04:59;;;;;;;0.50;0.50;;;7.70;99.90;;;;;;4992690;28;20248;-77
2021/04/06 10:07:28;;;;;;;2.30;0.65;;;7.40;99.90;;;;;;4992437;28;20248;-76
2021/04/06 10:10:03;;;;;;;1.85;0.73;;;7.10;99.90;;;;;;4991961;28;20177;-78
2021/04/06 10:12:30;;;;;;;0.75;0.75;;;6.70;99.90;;;;;;4993454;28;20648;-77
2021/04/06 10:14:56;;;;;;;0.20;0.20;;;6.30;99.90;;;;;;4992214;28;20231;-76
2021/04/06 10:17:36;;;;;;;0.43;0.43;;;5.50;99.90;;;;;;4991360;28;20192;-78
2021/04/06 10:20:11;;;;;;;0.20;0.20;;;4.70;99.90;;;;;;4993102;28;20227;-76
2021/04/06 10:22:44;;;;;;;0.55;0.55;;;4.20;99.90;;;;;;4991634;28;20181;-76
2021/04/06 10:25:12;;;;;;;0.20;0.20;;;4.10;99.90;;;;;;4992881;28;20154;-75
2021/04/06 10:27:41;;;;;;;0.20;0.20;;;4.10;99.90;;;;;;4992937;28;20193;-76
2021/04/06 10:30:13;;;;;;;0.30;0.30;;;4.00;99.90;;;;;;4991694;28;20175;-76
2021/04/06 10:32:44;;;;;;;0.20;0.20;;;3.90;99.90;;;;;;4992797;28;20165;-78
2021/04/06 10:35:11;;;;;;;0.20;0.20;;;3.80;99.90;;;;;;4992609;28;20173;-74
2021/04/06 10:37:47;;;;;;;0.30;0.30;;;3.60;99.90;;;;;;4991332;28;20172;-76
2021/04/06 10:40:34;;;;;;;0.30;0.30;;;3.80;99.90;;;;;;4993212;28;20173;-75
2021/04/06 10:43:09;;;;;;;0.20;0.20;;;4.10;99.90;;;;;;4994092;28;20601;-78
2021/04/06 10:45:40;;;;;;;0.20;0.20;;;4.30;99.90;;;;;;4995165;28;20256;-77
2021/04/06 10:48:11;;;;;;;0.20;0.20;;;4.50;99.90;;;;;;4993895;28;20217;-77
2021/04/06 10:50:43;;;;;;;0.20;0.20;;;4.70;99.90;;;;;;5009174;28;20191;-80
2021/04/06 10:53:19;;;;;;;0.57;0.50;;;5.20;99.90;;;;;;4996616;28;20191;-77
2021/04/06 10:55:51;;;;;;;0.25;0.25;;;5.50;99.90;;;;;;4996324;28;20248;-78
2021/04/06 10:58:25;;;;;;;4.05;1.63;;;6.00;99.90;;;;;;5027994;28;20636;-78
2021/04/06 11:00:56;;;;;;;0.60;0.60;;;6.00;99.90;;;;;;4996244;28;20168;-79
2021/04/06 11:03:25;;;;;;;0.20;0.20;;;6.20;99.90;;;;;;4996256;28;20173;-78
2021/04/06 11:05:51;;;;;;;0.20;0.20;;;6.40;99.90;;;;;;4996412;28;20287;-78
2021/04/06 11:08:21;;;;;;;0.43;0.43;;;6.60;99.90;;;;;;4996763;28;20216;-77
2021/04/06 11:10:49;;;;;;;0.20;0.20;;;6.70;99.90;;;;;;4996306;28;20179;-78
2021/04/06 11:13:15;;;;;;;0.40;0.40;;;7.00;99.90;;;;;;4995059;28;20708;-78
2021/04/06 11:15:41;;;;;;;1.50;1.10;;;7.10;99.90;;;;;;4996063;28;20403;-79
2021/04/06 11:18:08;;;;;;;10.70;0.77;;;7.30;99.90;;;;;;4996169;28;20161;-80
2021/04/06 11:20:33;;;;;;;0.65;0.65;;;7.40;99.90;;;;;;4994823;28;20267;-78
2021/04/06 11:22:59;;;;;;;0.30;0.30;;;7.40;99.90;;;;;;4995795;28;20203;-77
2021/04/06 11:25:26;;;;;;;0.20;0.20;;;7.40;99.90;;;;;;4995756;28;20204;-77
2021/04/06 11:27:53;;;;;;;0.20;0.20;;;7.70;99.90;;;;;;4995930;28;20319;-78
2021/04/06 11:30:20;;;;;;;0.20;0.20;;;8.10;99.90;;;;;;4995775;28;20637;-78
2021/04/06 11:32:46;;;;;;;0.20;0.20;;;8.20;99.90;;;;;;4995815;28;20170;-78
2021/04/06 11:35:12;;;;;;;0.20;0.20;;;8.10;99.90;;;;;;4996115;28;20173;-77
2021/04/06 11:37:37;;;;;;;0.28;0.28;;;8.10;99.90;;;;;;4995679;28;20173;-77
2021/04/06 11:40:04;;;;;;;0.50;0.50;;;7.70;99.90;;;;;;4995698;28;20663;-76
2021/04/06 11:42:30;;;;;;;0.20;0.20;;;7.10;99.90;;;;;;4995571;28;20166;-79
2021/04/06 11:44:55;;;;;;;0.20;0.20;;;6.70;99.90;;;;;;4995640;28;20228;-77
2021/04/06 11:47:24;;;;;;;0.20;0.20;;;6.60;99.90;;;;;;4995350;28;20201;-77
2021/04/06 11:49:50;;;;;;;0.20;0.20;;;6.30;99.90;;;;;;4994242;28;20178;-77
2021/04/06 11:52:16;;;;;;;0.30;0.30;;;5.80;99.90;;;;;;4995590;28;20687;-76
2021/04/06 11:54:44;;;;;;;0.20;0.20;;;5.80;99.90;;;;;;4993186;28;20607;-77
2021/04/06 11:57:10;;;;;;;12.15;1.33;;;6.00;99.90;;;;;;4995018;28;20189;-77
2021/04/06 11:59:36;;;;;;;0.20;0.20;;;6.20;99.90;;;;;;4995359;28;20248;-77
2021/04/06 12:02:01;;;;;;;0.25;0.25;;;6.30;99.90;;;;;;4995312;28;20342;-77
2021/04/06 12:04:30;;;;;;;0.40;0.40;;;6.50;99.90;;;;;;4993899;28;20178;-77
2021/04/06 12:06:56;;;;;;;0.55;0.55;;;6.70;99.90;;;;;;4995390;28;20185;-78
2021/04/06 12:09:21;;;;;;;0.20;0.20;;;7.20;99.90;;;;;;4995149;28;20188;-78
2021/04/06 12:11:47;;;;;;;0.22;0.22;;;7.40;99.90;;;;;;5010002;28;20206;-79
2021/04/06 12:14:15;;;;;;;0.30;0.30;;;7.70;99.90;;;;;;4994533;28;20538;-78
2021/04/06 12:16:41;;;;;;;0.20;0.20;;;6.60;99.90;;;;;;4993646;28;20188;-77
2021/04/06 12:19:09;;;;;;;0.25;0.25;;;5.30;99.90;;;;;;4993729;28;20652;-78
2021/04/06 12:21:34;;;;;;;0.40;0.40;;;4.70;99.90;;;;;;4992531;28;20711;-77
2021/04/06 12:24:00;;;;;;;1.20;1.20;;;4.20;99.90;;;;;;5024609;28;20203;-77
2021/04/06 12:26:28;;;;;;;0.27;0.27;;;4.10;99.90;;;;;;4991116;28;20196;-76
2021/04/06 12:28:54;;;;;;;0.32;0.32;;;4.00;99.90;;;;;;4993702;28;20751;-77
2021/04/06 12:31:19;;;;;;;0.75;0.52;;;4.30;99.90;;;;;;4993895;28;20199;-77
2021/04/06 12:33:47;;;;;;;0.30;0.30;;;4.80;99.90;;;;;;4994580;28;20248;-77
2021/04/06 12:36:13;;;;;;;0.52;0.52;;;5.30;99.90;;;;;;5009645;28;20744;-77
2021/04/06 12:38:39;;;;;;;0.63;0.63;;;5.70;99.90;;;;;;4994667;28;20543;-76
2021/04/06 12:41:04;;;;;;;0.25;0.25;;;5.90;99.90;;;;;;4993439;28;20157;-78
2021/04/06 12:43:30;;;;;;;0.73;0.73;;;5.70;99.90;;;;;;4992861;28;20253;-77
2021/04/06 12:45:56;;;;;;;0.55;0.55;;;5.60;99.90;;;;;;5005769;28;20197;-76
2021/04/06 12:48:22;;;;;;;0.50;0.50;;;5.50;99.90;;;;;;4993481;28;20224;-82
2021/04/06 12:50:47;;;;;;;0.20;0.20;;;5.40;99.90;;;;;;4993838;28;20183;-78
2021/04/06 12:53:13;;;;;;;0.22;0.22;;;5.70;99.90;;;;;;4993587;28;20572;-77
2021/04/06 12:55:38;;;;;;;14.25;4.28;;;6.00;99.90;;;;;;4993535;28;20268;-77
2021/04/06 12:58:04;;;;;;;0.55;0.55;;;6.10;99.90;;;;;;4994110;28;20161;-76
2021/04/06 13:00:30;;;;;;;0.20;0.20;;;6.00;99.90;;;;;;4992655;28;20649;-76
2021/04/06 13:02:56;;;;;;;0.30;0.30;;;6.00;99.90;;;;;;4993826;28;20176;-77
2021/04/06 13:05:21;;;;;;;0.22;0.22;;;5.70;99.90;;;;;;4993612;28;20188;-77
2021/04/06 13:07:47;;;;;;;0.68;0.68;;;5.50;99.90;;;;;;4993719;28;20213;-76
2021/04/06 13:10:18;;;;;;;0.88;0.88;;;5.40;99.90;;;;;;4992561;28;20174;-76
2021/04/06 13:12:44;;;;;;;0.30;0.30;;;5.20;99.90;;;;;;4993498;28;20175;-78